INDIA METEOROLOGICAL DEPARTMENT, R.M.C. NEW DELHI
Dated:26 - 8 - 2016
METARS


Agartala   
VEAT 260300Z 00000KT 5000 BR SCT020 BKN100 29/27 Q1008 NOSIG=
Ahmedabad  
VAAH 260230Z 28004KT 3000 BR SCT015 SCT020 BKN080 27/26 Q1005 BECMG 4000=
Allahabad  
VEAB 260230Z 10006KT 4000 BR FEW010 SCT030 30/28 Q1006 NOSIG=
Amritsar   
VIAR 260300Z 00000KT 3000 BR SCT100 28/28 Q1007 BECMG 5000=
Aurangabad 
VAAU 260300Z 25004KT 5000 HZ SCT020 BKN100 24/22 Q1010=
Bangalore  
VOBL 260300Z 30009KT 6000 FEW010 SCT012 23/21 Q1013 NOSIG=
Baroda     
VABO 260200Z 22004KT 3000 HZ BKN012 SCT020 OVC080 26/24 Q1005=
Bhubaneswar
VEBS 260300Z 12002 KT 3000 HZ SCT018 28/27 Q1006 NOSIG=
Bhuntar    
VIBR 260300Z 00000KT 8000 FEW015 SCT030 BKN080 22/21 Q1014=
Chennai    
VOMM 260300Z 24006KT 6000 SCT018 FEW025TCU BKN100 29/23 Q1005 NOSIG=
Coimbatore 
VOCB 260300Z 18008KT 6000 FEW015 SCT080 25/22 Q1011 NOSIG=
Colombo    
VCBI 260240Z 23009KT 190V270 9999 BKN015 28/23 Q1010 NOSIG=
Delhi      
VIDP 260300Z 25004KT 3200 BR SCT040 30/26 Q1007 NOSIG =
Dehradun   
VIDN 260300Z 09003KT 6000 FEW080 31/25 Q1009 =
Gauhati    
VEGT 260300Z 13007KT 2000 -TSRA FEW010 SCT015 FEW025CB OVC090 26/26 Q1009 NOSIG=
Gaya       
VEGY 260300Z NIL=
Goa        
VOGO 260200Z VRB03KT 5000 BR FEW014 SCT090 26/23 Q1007 TEMPO 4000 BR =
Fursatganj 
VERB 260300Z 09003KT 1800 HZ FEW100 32/28 Q1004=
Hyderabad  
VOHS 260300Z NIL=
Imphal     
VEIM 260300Z 15001KT 5000 BR SCT016 26/22 Q1013 BECMG 6000 NSW =
Indore     
VAID 260300Z 00000KT 3000 HZ FEW020 SCT100 24/21 Q1010 NOSIG=
Jaipur     
VIJP 260230Z 00000KT 3000 BR SCT100 27/25 Q1009 BECMG 5000=
Kochi      
VOCI 260300Z 17003KT 3000 BR SCT008 SCT015 26/24 Q1010 NOSIG=
Kolkata    
VECC 260300Z 14007KT 3200 HZ SCT018 BKN100 32/28 Q1007 NOSIG=
Kozhikode  
VOCL 260300Z 30006KT 5000 BR FEW008 SCT012 BKN090 27/24 Q1010 NOSIG=
Lucknow    
VILK 260300Z 00000KT 3000 HZ FEW100 33/32 Q1006 NOSIG=
Madurai    
VOMD 260300Z 34006KT 7000 FEW020 SCT100 30/21 Q1008 NOSIG=
Mumbai     
VABB 260300Z 26009KT 2500 VCSH FEW012 SCT018 SCT025 BKN090 26/24 Q1007 NOSIG=
Nagpur     
VANP 260230Z 32004KT 2500 HZ SCT020 BKN090 27/23 Q1008 NOSIG=
Patna      
VEPT 260300Z 14003KT 2500 HZ SCT018 FEW030CB BKN100 26/25 Q1006 BECMG 3000 HZ=
Raipur     
VERP 260300Z 23002KT 5000 HZ SCT018 BKN090 27/25 Q1006 NOSIG =
Safdarjung 
VIDD 260300Z 23002KT 2500 BR FEW040 SCT100 29/26 Q1007 NOSIG=
Ranchi     
VERC 260300Z 05004KT 2500 HZ SCT015 BKN100 26/25 Q1010 NOSIG=
Trichy     
VOTR 260300Z 28010KT 6000 SCT016 SCT100 29/22 Q1007 NOSIG=
Trivandrum 
VOTV 260300Z 30007KT 4000 HZ SCT015 SCT090 27/22 Q1010 NOSIG=
Udaipur    
VAUD 260300Z VRB01KT 5000 HZ SCT025 BKN080 25/24 Q1008 NOSIG=
Varanasi   
VEBN 260230Z 08005KT 4000 HYZ SCT025 BKN090 27/26 Q1006=
Vizag      
VOVZ 260200Z VRB02KT 4500 BR FEW018 SC090 28/25 Q1004 BECMG 5000 BR=
Male       
VRMM 260300Z 27011KT 9999 FEW017 FEW018CB BKN280 29/26 Q1011 CB SE NOSIG=
Gan        
VRMG 260300Z 23006KT 9999 FEW018TCU BKN260 29/24 Q1012=
Kathmandu  
VNKT 260300Z NIL=
Dhaka      
VGHS 260300Z 06006KT 4000 HZ BKN010 BKN100 28/25 Q1007 NOSIG=
Colombo    
VCBI 260240Z 23009KT 190V270 9999 BKN015 28/23 Q1010 NOSIG=
Karachi    
OPKC 260255Z 25007KT 4000 FU SCT020 29/24 Q1005 NOSIG=
Lahore     
OPLA 260255Z 03003KT 3000 FU SCT100 29/25 Q1007 BECMG 4000 FU/A29.73=
Leh        
VILH 260230Z VRB02KT 6000 VCSH/SOCC SCT050 BKN100 16/08 Q1027 NOSIG RMK:C,K-ANC;W-APC;E-AC=
Sri Nagar  
VISR 260230Z VRB02KT 1800 BR FEW025 SCT080 19/18 Q1020 BECMG 3000 M=
Jammu      
VIJU 260230Z VRB01KT 6000 SCT025 BKN100 27/24 Q1007 NOSIG=
Gorakhpur  
VEGK 260230Z 17007KT 2500 BR SCT250 31/28 Q1006 BECMG3000=
Agra       
VIAG 260230Z 27003KT 6000 FEW025 BKN090 28/28 Q1007 NOSIG=
Bagdogra   
VEBD 260230Z VRB02KT 6000 RA SCT020 FEW030CB BKN090 23/23 Q1009 TEMPO TSRA=
Pune       
VAPO 260230Z 28007KT 6000 FEW015 SCT020 BKN090 24/23 Q1011 TEMPO -RA=
Chandigarh 
VICG 260130Z VRB01KT 6000 FEW090 BKN250 28/26 Q1007 NOSIG=